createdAt,value
2023-05-09T00:02:02.192Z,2.80
2023-05-09T00:04:32.746Z,2.58
2023-05-09T00:07:00.877Z,2.63
2023-05-09T00:09:28.913Z,2.78
2023-05-09T00:11:56.872Z,2.85
2023-05-09T00:14:24.941Z,2.63
2023-05-09T00:16:53.750Z,2.63
2023-05-09T00:19:21.818Z,2.80
2023-05-09T00:21:51.129Z,3.00
2023-05-09T00:24:19.007Z,2.60
2023-05-09T00:26:46.929Z,2.58
2023-05-09T00:29:14.854Z,2.70
2023-05-09T00:31:42.770Z,2.60
2023-05-09T00:34:11.051Z,2.97
2023-05-09T00:36:39.005Z,2.95
2023-05-09T00:39:08.700Z,3.28
2023-05-09T00:41:36.726Z,2.65
2023-05-09T00:44:04.667Z,3.20
2023-05-09T00:46:32.614Z,2.85
2023-05-09T00:49:00.677Z,3.40
2023-05-09T00:51:29.368Z,3.00
2023-05-09T00:53:57.283Z,2.63
2023-05-09T00:56:27.547Z,2.80
2023-05-09T00:58:55.757Z,2.92
2023-05-09T01:01:23.939Z,3.35
2023-05-09T01:03:52.250Z,2.90
2023-05-09T01:06:25.084Z,3.28
2023-05-09T01:08:56.201Z,2.75
2023-05-09T01:11:30.788Z,3.15
2023-05-09T01:14:04.421Z,2.95
2023-05-09T01:16:36.304Z,3.28
2023-05-09T01:19:16.028Z,3.20
2023-05-09T01:21:45.763Z,3.17
2023-05-09T01:24:23.968Z,3.05
2023-05-09T01:27:04.819Z,3.45
2023-05-09T01:29:38.590Z,3.33
2023-05-09T01:32:09.822Z,2.63
2023-05-09T01:34:39.802Z,3.10
2023-05-09T01:37:08.476Z,3.40
2023-05-09T01:39:40.137Z,3.40
2023-05-09T01:42:09.840Z,3.20
2023-05-09T01:44:42.492Z,3.20
2023-05-09T01:47:11.059Z,3.33
2023-05-09T01:49:39.900Z,3.28
2023-05-09T01:52:10.284Z,3.40
2023-05-09T01:54:40.030Z,3.45
2023-05-09T01:57:09.100Z,3.50
2023-05-09T01:59:41.667Z,3.10
2023-05-09T02:02:09.625Z,3.17
2023-05-09T02:04:37.787Z,3.20
2023-05-09T02:07:06.263Z,3.40
2023-05-09T02:09:34.156Z,3.50
2023-05-09T02:12:02.137Z,3.20
2023-05-09T02:14:30.856Z,3.78
2023-05-09T02:17:06.221Z,3.85
2023-05-09T02:19:35.709Z,3.35
2023-05-09T02:22:04.933Z,2.97
2023-05-09T02:24:33.744Z,3.30
2023-05-09T02:27:02.635Z,3.20
2023-05-09T02:29:38.573Z,3.30
2023-05-09T02:32:09.623Z,4.13
2023-05-09T02:34:38.343Z,3.35
2023-05-09T02:37:06.551Z,3.35
2023-05-09T02:39:36.187Z,3.78
2023-05-09T02:42:08.800Z,3.90
2023-05-09T02:44:36.790Z,3.50
2023-05-09T02:47:05.862Z,3.53
2023-05-09T02:49:35.654Z,3.30
2023-05-09T02:52:06.081Z,3.60
2023-05-09T02:54:34.076Z,3.40
2023-05-09T02:57:02.228Z,3.67
2023-05-09T02:59:30.383Z,3.50
2023-05-09T03:02:01.641Z,3.13
2023-05-09T03:04:30.832Z,3.75
2023-05-09T03:07:00.158Z,3.13
2023-05-09T03:09:32.365Z,3.58
2023-05-09T03:12:00.462Z,3.42
2023-05-09T03:14:28.408Z,3.70
2023-05-09T03:16:56.303Z,3.88
2023-05-09T03:19:33.682Z,3.78
2023-05-09T03:22:03.242Z,3.50
2023-05-09T03:24:34.800Z,3.30
2023-05-09T03:27:03.804Z,3.33
2023-05-09T03:29:31.855Z,3.70
2023-05-09T03:32:00.250Z,3.38
2023-05-09T03:34:28.200Z,3.30
2023-05-09T03:36:56.302Z,3.35
2023-05-09T03:39:25.869Z,3.83
2023-05-09T03:41:57.628Z,3.58
2023-05-09T03:44:25.818Z,3.55
2023-05-09T03:46:55.608Z,3.45
2023-05-09T03:49:24.075Z,3.50
2023-05-09T03:51:54.687Z,3.30
2023-05-09T03:54:22.637Z,3.53
2023-05-09T03:56:53.301Z,3.45
2023-05-09T03:59:21.420Z,3.47
2023-05-09T04:01:49.482Z,3.53
2023-05-09T04:04:18.653Z,3.30
2023-05-09T04:06:46.570Z,3.22
2023-05-09T04:09:17.096Z,3.53
2023-05-09T04:11:46.665Z,3.47
2023-05-09T04:14:17.676Z,4.03
2023-05-09T04:16:46.052Z,3.38
2023-05-09T04:19:14.445Z,3.30
2023-05-09T04:21:42.375Z,3.30
2023-05-09T04:24:11.688Z,3.65
2023-05-09T04:26:43.759Z,3.95
2023-05-09T04:29:17.573Z,3.53
2023-05-09T04:31:51.409Z,3.25
2023-05-09T04:34:20.663Z,3.53
2023-05-09T04:36:49.087Z,3.47
2023-05-09T04:39:17.383Z,3.10
2023-05-09T04:41:54.636Z,3.55
2023-05-09T04:44:24.969Z,3.35
2023-05-09T04:46:55.121Z,2.95
2023-05-09T04:49:23.001Z,3.17
2023-05-09T04:51:51.768Z,3.30
2023-05-09T04:54:19.656Z,2.97
2023-05-09T04:56:50.149Z,2.95
2023-05-09T04:59:19.059Z,3.50
2023-05-09T05:01:49.220Z,3.05
2023-05-09T05:04:17.790Z,3.38
2023-05-09T05:06:45.847Z,1.67
2023-05-09T05:09:14.120Z,3.20
2023-05-09T05:11:50.247Z,3.03
2023-05-09T05:14:26.707Z,3.03
2023-05-09T05:16:56.599Z,2.80
2023-05-09T05:19:25.623Z,2.88
2023-05-09T05:21:53.621Z,0.98
2023-05-09T05:24:21.846Z,3.35
2023-05-09T05:26:49.876Z,3.35
2023-05-09T05:29:18.114Z,2.88
2023-05-09T05:31:46.474Z,3.03
2023-05-09T05:34:16.856Z,2.70
2023-05-09T05:36:47.718Z,2.87
2023-05-09T05:39:15.634Z,2.90
2023-05-09T05:41:43.517Z,3.42
2023-05-09T05:44:12.182Z,2.83
2023-05-09T05:46:40.173Z,2.50
2023-05-09T05:49:08.437Z,2.60
2023-05-09T05:51:38.490Z,2.72
2023-05-09T05:54:07.849Z,2.67
2023-05-09T05:56:37.711Z,1.73
2023-05-09T05:59:06.293Z,2.45
2023-05-09T06:01:34.225Z,2.40
2023-05-09T06:04:02.227Z,2.38
2023-05-09T06:06:32.579Z,1.80
2023-05-09T06:09:01.920Z,2.58
2023-05-09T06:11:29.891Z,2.40
2023-05-09T06:13:57.846Z,2.47
2023-05-09T06:16:25.824Z,2.05
2023-05-09T06:18:55.921Z,2.40
2023-05-09T06:21:24.201Z,2.33
2023-05-09T06:24:06.630Z,2.45
2023-05-09T06:26:40.553Z,2.30
2023-05-09T06:29:09.948Z,2.45
2023-05-09T06:31:38.973Z,2.15
2023-05-09T06:34:07.294Z,2.20
2023-05-09T06:36:35.273Z,1.90
2023-05-09T06:39:03.343Z,2.08
2023-05-09T06:41:31.233Z,2.45
2023-05-09T06:44:02.505Z,1.88
2023-05-09T06:46:30.501Z,2.10
2023-05-09T06:48:58.504Z,2.65
2023-05-09T06:51:27.149Z,2.47
2023-05-09T06:53:55.064Z,2.10
2023-05-09T06:56:23.444Z,2.00
2023-05-09T06:58:51.639Z,2.38
2023-05-09T07:01:20.885Z,2.30
2023-05-09T07:03:49.297Z,2.20
2023-05-09T07:06:17.655Z,2.30
2023-05-09T07:08:46.013Z,1.98
2023-05-09T07:11:13.950Z,2.28
2023-05-09T07:13:41.867Z,1.73
2023-05-09T07:16:09.728Z,2.58
2023-05-09T07:18:39.299Z,2.30
2023-05-09T07:21:07.724Z,1.70
2023-05-09T07:23:35.571Z,2.63
2023-05-09T07:26:03.636Z,2.20
2023-05-09T07:28:31.832Z,1.55
2023-05-09T07:30:59.789Z,2.50
2023-05-09T07:33:27.847Z,2.20
2023-05-09T07:35:57.145Z,2.40
2023-05-09T07:38:25.133Z,2.00
2023-05-09T07:40:53.262Z,2.40
2023-05-09T07:43:21.444Z,2.17
2023-05-09T07:45:49.327Z,2.33
2023-05-09T07:48:17.260Z,2.30
2023-05-09T07:50:47.343Z,2.58
2023-05-09T07:53:16.621Z,2.33
2023-05-09T07:55:47.580Z,2.92
2023-05-09T07:58:15.747Z,1.77
2023-05-09T08:00:43.786Z,2.45
2023-05-09T08:03:12.187Z,2.33
2023-05-09T08:05:40.832Z,2.38
2023-05-09T08:08:08.827Z,1.73
2023-05-09T08:10:38.061Z,2.38
2023-05-09T08:13:06.030Z,2.22
2023-05-09T08:15:33.947Z,2.22
2023-05-09T08:18:01.907Z,2.38
2023-05-09T08:20:31.551Z,2.30
2023-05-09T08:22:59.552Z,2.08
2023-05-09T08:25:27.528Z,2.08
2023-05-09T08:27:56.988Z,2.20
2023-05-09T08:30:24.902Z,2.42
2023-05-09T08:32:54.140Z,2.05
2023-05-09T08:35:22.019Z,2.42
2023-05-09T08:37:49.938Z,1.55
2023-05-09T08:40:18.731Z,2.88
2023-05-09T08:42:46.915Z,2.75
2023-05-09T08:45:17.690Z,2.03
2023-05-09T08:47:45.867Z,2.50
2023-05-09T08:50:15.544Z,2.25
2023-05-09T08:52:44.055Z,2.10
2023-05-09T08:55:12.768Z,2.40
2023-05-09T08:57:41.152Z,2.05
2023-05-09T09:00:11.435Z,1.67
2023-05-09T09:02:42.988Z,2.13
2023-05-09T09:05:23.880Z,1.40
2023-05-09T09:07:59.129Z,2.20
2023-05-09T09:10:28.216Z,2.08
2023-05-09T09:12:57.591Z,2.13
2023-05-09T09:15:28.783Z,2.28
2023-05-09T09:18:01.186Z,2.00
2023-05-09T09:20:32.475Z,1.80
2023-05-09T09:23:02.071Z,1.70
2023-05-09T09:25:29.994Z,2.03
2023-05-09T09:27:57.861Z,1.95
2023-05-09T09:30:26.672Z,1.65
2023-05-09T09:32:54.707Z,1.70
2023-05-09T09:35:24.910Z,1.90
2023-05-09T09:37:59.752Z,1.80
2023-05-09T09:40:28.160Z,1.75
2023-05-09T09:42:56.047Z,1.80
2023-05-09T09:45:24.042Z,2.00
2023-05-09T09:47:52.004Z,1.83
2023-05-09T09:50:23.284Z,1.92
2023-05-09T09:52:55.634Z,1.75
2023-05-09T09:55:24.605Z,1.83
2023-05-09T09:57:52.845Z,1.80
2023-05-09T10:00:27.354Z,1.80
2023-05-09T10:02:56.839Z,1.42
2023-05-09T10:05:25.599Z,1.00
2023-05-09T10:07:59.592Z,1.73
2023-05-09T10:10:28.900Z,1.52
2023-05-09T10:12:58.363Z,1.65
2023-05-09T10:15:27.708Z,1.58
2023-05-09T10:17:58.576Z,1.52
2023-05-09T10:20:27.029Z,1.67
2023-05-09T10:22:57.676Z,1.55
2023-05-09T10:25:29.585Z,1.58
2023-05-09T10:28:01.685Z,1.30
2023-05-09T10:30:34.163Z,1.40
2023-05-09T10:33:04.783Z,1.70
2023-05-09T10:35:38.449Z,1.67
2023-05-09T10:38:09.986Z,1.50
2023-05-09T10:40:39.347Z,1.50
2023-05-09T10:43:08.321Z,2.30
2023-05-09T10:45:36.810Z,1.33
2023-05-09T10:48:09.011Z,1.40
2023-05-09T10:50:37.822Z,1.80
2023-05-09T10:53:08.384Z,1.88
2023-05-09T10:55:40.945Z,1.65
2023-05-09T10:58:20.598Z,1.40
2023-05-09T11:00:49.201Z,1.25
2023-05-09T11:03:19.167Z,1.42
2023-05-09T11:05:47.581Z,1.40
2023-05-09T11:08:27.296Z,1.45
2023-05-09T11:10:56.047Z,1.90
2023-05-09T11:13:25.565Z,1.52
2023-05-09T11:16:12.832Z,1.27
2023-05-09T11:18:58.660Z,1.50
2023-05-09T11:21:27.616Z,1.40
2023-05-09T11:23:56.928Z,1.33
2023-05-09T11:26:30.369Z,1.70
2023-05-09T11:29:02.765Z,1.48
2023-05-09T11:31:30.770Z,1.42
2023-05-09T11:34:04.956Z,1.60
2023-05-09T11:36:34.074Z,1.30
2023-05-09T11:39:06.315Z,1.45
2023-05-09T11:41:40.780Z,1.63
2023-05-09T11:44:18.958Z,1.75
2023-05-09T11:46:47.371Z,1.48
2023-05-09T11:49:15.498Z,1.30
2023-05-09T11:51:43.940Z,1.67
2023-05-09T11:54:14.986Z,1.77
2023-05-09T11:56:43.259Z,2.28
2023-05-09T11:59:13.291Z,1.60
2023-05-09T12:01:41.307Z,1.40
2023-05-09T12:04:09.362Z,1.40
2023-05-09T12:06:37.808Z,1.40
2023-05-09T12:09:06.222Z,1.60
2023-05-09T12:11:37.112Z,1.73
2023-05-09T12:14:05.458Z,1.58
2023-05-09T12:16:33.469Z,1.48
2023-05-09T12:19:01.589Z,1.33
2023-05-09T12:21:29.627Z,1.52
2023-05-09T12:23:57.714Z,1.67
2023-05-09T12:26:25.697Z,1.50
2023-05-09T12:28:55.361Z,1.45
2023-05-09T12:31:23.638Z,1.60
2023-05-09T12:33:51.998Z,1.40
2023-05-09T12:36:20.298Z,1.30
2023-05-09T12:38:54.919Z,1.60
2023-05-09T12:41:37.029Z,1.27
2023-05-09T12:44:08.982Z,1.60
2023-05-09T12:46:37.666Z,1.48
2023-05-09T12:49:05.902Z,1.10
2023-05-09T12:51:33.947Z,1.45
2023-05-09T12:54:05.340Z,1.50
2023-05-09T12:56:35.595Z,1.55
2023-05-09T12:59:10.930Z,1.58
2023-05-09T13:01:40.328Z,1.63
2023-05-09T13:04:09.546Z,1.50
2023-05-09T13:06:49.126Z,1.48
2023-05-09T13:09:17.159Z,1.42
2023-05-09T13:11:45.552Z,1.33
2023-05-09T13:14:13.600Z,1.40
2023-05-09T13:16:43.062Z,1.73
2023-05-09T13:19:11.442Z,2.00
2023-05-09T13:21:39.326Z,1.80
2023-05-09T13:24:07.858Z,1.67
2023-05-09T13:26:35.765Z,1.83
2023-05-09T13:29:03.709Z,2.42
2023-05-09T13:31:31.706Z,1.75
2023-05-09T13:34:00.982Z,1.58
2023-05-09T13:36:28.888Z,1.67
2023-05-09T13:38:56.836Z,1.48
2023-05-09T13:41:25.023Z,1.60
2023-05-09T13:43:53.080Z,1.67
2023-05-09T13:46:21.181Z,2.00
2023-05-09T13:48:49.218Z,1.70
2023-05-09T13:51:18.621Z,1.52
2023-05-09T13:53:46.707Z,2.15
2023-05-09T13:56:14.672Z,1.90
2023-05-09T13:58:42.602Z,1.63
2023-05-09T14:01:10.615Z,2.00
2023-05-09T14:03:39.683Z,2.10
2023-05-09T14:06:09.333Z,1.50
2023-05-09T14:08:39.670Z,1.80
2023-05-09T14:11:08.959Z,1.80
2023-05-09T14:13:37.118Z,1.60
2023-05-09T14:16:06.105Z,1.75
2023-05-09T14:18:34.050Z,1.85
2023-05-09T14:21:02.144Z,1.70
2023-05-09T14:23:30.533Z,1.90
2023-05-09T14:25:59.988Z,1.85
2023-05-09T14:28:28.197Z,1.55
2023-05-09T14:30:57.346Z,1.85
2023-05-09T14:33:27.151Z,1.70
2023-05-09T14:35:55.107Z,2.17
2023-05-09T14:38:23.108Z,2.15
2023-05-09T14:40:51.229Z,1.67
2023-05-09T14:43:22.287Z,1.67
2023-05-09T14:45:50.237Z,1.80
2023-05-09T14:48:18.735Z,1.80
2023-05-09T14:50:46.656Z,1.27
2023-05-09T14:53:14.536Z,1.75
2023-05-09T14:55:42.513Z,1.50
2023-05-09T14:58:13.356Z,1.75
2023-05-09T15:00:42.885Z,1.63
2023-05-09T15:03:15.582Z,1.25
2023-05-09T15:08:11.291Z,1.80
2023-05-09T15:10:39.527Z,1.73
2023-05-09T15:13:07.569Z,2.13
2023-05-09T15:15:38.405Z,1.55
2023-05-09T15:18:10.307Z,1.77
2023-05-09T15:20:38.316Z,1.88
2023-05-09T15:23:06.714Z,1.77
2023-05-09T15:25:34.950Z,1.90
2023-05-09T15:28:03.053Z,1.65
2023-05-09T15:30:31.244Z,1.50
2023-05-09T15:32:59.413Z,1.90
2023-05-09T15:35:28.922Z,1.42
2023-05-09T15:37:57.061Z,1.70
2023-05-09T15:40:25.381Z,1.50
2023-05-09T15:42:53.505Z,1.83
2023-05-09T15:45:21.479Z,1.67
2023-05-09T15:47:49.553Z,1.95
2023-05-09T15:50:17.779Z,1.73
2023-05-09T15:52:47.460Z,1.80
2023-05-09T15:55:16.257Z,2.08
2023-05-09T15:57:45.222Z,1.70
2023-05-09T16:00:16.620Z,1.50
2023-05-09T16:02:45.071Z,2.00
2023-05-09T16:05:13.078Z,1.70
2023-05-09T16:07:44.708Z,1.40
2023-05-09T16:10:14.204Z,1.58
2023-05-09T16:12:42.292Z,1.70
2023-05-09T16:15:11.525Z,1.70
2023-05-09T16:17:39.420Z,2.20
2023-05-09T16:20:08.636Z,2.15
2023-05-09T16:22:36.568Z,2.53
2023-05-09T16:25:04.552Z,1.73
2023-05-09T16:27:33.829Z,2.08
2023-05-09T16:30:03.070Z,1.85
2023-05-09T16:32:31.292Z,1.90
2023-05-09T16:34:59.538Z,1.55
2023-05-09T16:37:29.204Z,1.65
2023-05-09T16:39:57.905Z,1.55
2023-05-09T16:42:27.417Z,1.70
2023-05-09T16:45:15.554Z,2.22
2023-05-09T16:47:46.919Z,1.60
2023-05-09T16:50:16.597Z,2.08
2023-05-09T16:52:45.243Z,2.10
2023-05-09T16:55:16.706Z,1.85
2023-05-09T16:57:48.106Z,1.55
2023-05-09T17:00:25.060Z,1.92
2023-05-09T17:02:55.668Z,1.55
2023-05-09T17:05:24.075Z,1.70
2023-05-09T17:07:52.386Z,1.88
2023-05-09T17:10:21.043Z,1.80
2023-05-09T17:12:49.204Z,2.30
2023-05-09T17:15:19.446Z,2.00
2023-05-09T17:17:47.985Z,1.83
2023-05-09T17:20:16.639Z,2.00
2023-05-09T17:22:46.321Z,2.05
2023-05-09T17:25:15.156Z,1.98
2023-05-09T17:27:43.157Z,1.92
2023-05-09T17:30:11.519Z,1.83
2023-05-09T17:32:41.918Z,2.10
2023-05-09T17:35:11.300Z,2.00
2023-05-09T17:37:39.603Z,2.05
2023-05-09T17:40:08.579Z,2.30
2023-05-09T17:42:36.782Z,2.00
2023-05-09T17:45:05.487Z,1.80
2023-05-09T17:47:33.897Z,2.17
2023-05-09T17:50:03.287Z,1.70
2023-05-09T17:52:32.377Z,2.20
2023-05-09T17:55:01.839Z,1.98
2023-05-09T17:57:29.802Z,1.80
2023-05-09T17:59:58.338Z,1.80
2023-05-09T18:02:26.523Z,1.98
2023-05-09T18:04:55.270Z,2.15
2023-05-09T18:07:25.291Z,1.80
2023-05-09T18:09:53.276Z,2.00
2023-05-09T18:12:21.586Z,1.88
2023-05-09T18:14:49.499Z,2.08
2023-05-09T18:17:18.464Z,1.60
2023-05-09T18:19:46.348Z,2.00
2023-05-09T18:22:15.708Z,2.45
2023-05-09T18:24:44.985Z,2.05
2023-05-09T18:27:13.022Z,1.83
2023-05-09T18:29:40.952Z,1.98
2023-05-09T18:32:09.068Z,1.70
2023-05-09T18:34:36.947Z,1.75
2023-05-09T18:37:05.031Z,2.00
2023-05-09T18:39:32.942Z,1.70
2023-05-09T18:42:02.288Z,1.90
2023-05-09T18:44:30.502Z,2.00
2023-05-09T18:46:58.852Z,2.03
2023-05-09T18:49:27.576Z,1.80
2023-05-09T18:51:56.528Z,2.05
2023-05-09T18:54:25.147Z,1.95
2023-05-09T18:56:53.255Z,2.20
2023-05-09T18:59:23.570Z,1.90
2023-05-09T19:01:51.751Z,2.20
2023-05-09T19:04:19.968Z,2.15
2023-05-09T19:06:48.466Z,1.98
2023-05-09T19:09:16.661Z,2.05
2023-05-09T19:11:45.137Z,1.88
2023-05-09T19:14:13.036Z,2.13
2023-05-09T19:16:42.430Z,2.00
2023-05-09T19:19:10.829Z,2.13
2023-05-09T19:21:38.787Z,1.70
2023-05-09T19:24:07.394Z,1.80
2023-05-09T19:26:35.389Z,2.10
2023-05-09T19:29:08.075Z,1.80
2023-05-09T19:31:37.217Z,2.10
2023-05-09T19:34:06.456Z,2.25
2023-05-09T19:36:34.814Z,2.03
2023-05-09T19:39:02.871Z,1.80
2023-05-09T19:41:30.768Z,2.35
2023-05-09T19:43:59.451Z,1.98
2023-05-09T19:46:27.468Z,2.10
2023-05-09T19:48:55.382Z,1.90
2023-05-09T19:51:24.635Z,2.10
2023-05-09T19:53:52.540Z,2.00
2023-05-09T19:56:20.706Z,2.08
2023-05-09T19:58:49.722Z,2.50
2023-05-09T20:01:19.008Z,2.08
2023-05-09T20:03:50.245Z,2.40
2023-05-09T20:06:18.377Z,2.42
2023-05-09T20:08:47.730Z,2.35
2023-05-09T20:11:15.732Z,2.30
2023-05-09T20:13:44.848Z,2.10
2023-05-09T20:16:12.848Z,2.40
2023-05-09T20:18:40.750Z,2.25
2023-05-09T20:21:09.824Z,1.95
2023-05-09T20:23:38.172Z,2.22
2023-05-09T20:26:07.443Z,2.35
2023-05-09T20:28:35.359Z,2.40
2023-05-09T20:31:04.372Z,1.85
2023-05-09T20:33:32.270Z,2.60
2023-05-09T20:36:00.846Z,2.45
2023-05-09T20:38:28.868Z,2.30
2023-05-09T20:40:56.792Z,2.80
2023-05-09T20:43:26.179Z,2.50
2023-05-09T20:45:54.259Z,2.40
2023-05-09T20:48:23.635Z,2.38
2023-05-09T20:50:51.511Z,2.30
2023-05-09T20:53:19.425Z,2.28
2023-05-09T20:55:49.583Z,2.38
2023-05-09T20:58:18.284Z,2.30
2023-05-09T21:00:48.523Z,2.10
2023-05-09T21:03:17.177Z,2.13
2023-05-09T21:05:45.130Z,2.40
2023-05-09T21:08:13.005Z,2.17
2023-05-09T21:10:41.245Z,2.70
2023-05-09T21:13:09.513Z,2.60
2023-05-09T21:15:37.468Z,2.53
2023-05-09T21:18:07.003Z,2.53
2023-05-09T21:20:34.957Z,2.47
2023-05-09T21:23:02.850Z,2.30
2023-05-09T21:25:30.729Z,2.38
2023-05-09T21:27:58.575Z,2.55
2023-05-09T21:30:26.448Z,2.50
2023-05-09T21:32:54.344Z,2.60
2023-05-09T21:35:23.832Z,2.38
2023-05-09T21:37:52.698Z,2.80
2023-05-09T21:40:20.596Z,2.70
2023-05-09T21:42:48.702Z,2.85
2023-05-09T21:45:18.081Z,2.50
2023-05-09T21:47:46.101Z,2.60
2023-05-09T21:50:14.547Z,2.78
2023-05-09T21:52:43.952Z,1.85
2023-05-09T21:55:11.898Z,2.80
2023-05-09T21:57:39.770Z,2.85
2023-05-09T22:00:13.978Z,2.80
2023-05-09T22:02:42.984Z,2.40
2023-05-09T22:05:11.335Z,2.60
2023-05-09T22:07:39.301Z,2.58
2023-05-09T22:10:09.932Z,2.50
2023-05-09T22:12:38.241Z,2.33
2023-05-09T22:15:07.260Z,2.60
2023-05-09T22:17:35.223Z,2.28
2023-05-09T22:20:03.292Z,2.58
2023-05-09T22:22:31.700Z,2.80
2023-05-09T22:24:59.632Z,2.80
2023-05-09T22:27:28.930Z,2.70
2023-05-09T22:29:56.872Z,2.70
2023-05-09T22:32:25.873Z,2.70
2023-05-09T22:34:55.148Z,2.90
2023-05-09T22:37:23.059Z,2.80
2023-05-09T22:39:51.158Z,2.92
2023-05-09T22:42:19.182Z,2.53
2023-05-09T22:44:49.875Z,2.75
2023-05-09T22:47:17.880Z,2.75
2023-05-09T22:49:46.005Z,2.80
2023-05-09T22:52:13.992Z,2.60
2023-05-09T22:54:42.182Z,2.67
2023-05-09T22:57:10.803Z,2.70
2023-05-09T22:59:38.688Z,2.90
2023-05-09T23:02:08.373Z,2.80
2023-05-09T23:04:36.626Z,2.63
2023-05-09T23:07:04.529Z,2.63
2023-05-09T23:09:32.489Z,3.10
2023-05-09T23:12:01.233Z,2.70
2023-05-09T23:14:29.144Z,2.45
2023-05-09T23:16:57.484Z,2.67
2023-05-09T23:19:26.916Z,2.55
2023-05-09T23:21:55.232Z,2.42
2023-05-09T23:24:23.163Z,2.15
2023-05-09T23:26:51.052Z,2.80
2023-05-09T23:29:18.965Z,2.97
2023-05-09T23:31:47.063Z,2.90
2023-05-09T23:34:15.175Z,2.70
2023-05-09T23:36:44.429Z,2.67
2023-05-09T23:39:12.442Z,2.67
2023-05-09T23:41:40.549Z,3.05
2023-05-09T23:44:09.030Z,2.20
2023-05-09T23:46:37.312Z,3.00
2023-05-09T23:49:05.369Z,2.47
2023-05-09T23:51:33.239Z,3.10
2023-05-09T23:54:02.781Z,2.97
2023-05-09T23:56:31.225Z,2.97
2023-05-09T23:58:59.123Z,3.45
